sensor_id;sensor_type;location;lat;lon;timestamp;pressure;altitude;pressure_sealevel;temperature;humidity
73085;BME280;61266;49.460;10.892;2022-07-22T00:00:35;98089.53;;;22.51;47.00
73085;BME280;61266;49.460;10.892;2022-07-22T00:03:03;98093.91;;;22.52;46.57
73085;BME280;61266;49.460;10.892;2022-07-22T00:05:31;98104.84;;;22.46;46.92
73085;BME280;61266;49.460;10.892;2022-07-22T00:07:59;98101.25;;;22.31;47.70
73085;BME280;61266;49.460;10.892;2022-07-22T00:10:26;98095.97;;;22.09;48.19
73085;BME280;61266;49.460;10.892;2022-07-22T00:12:54;98108.41;;;22.37;47.48
73085;BME280;61266;49.460;10.892;2022-07-22T00:15:22;98099.91;;;22.38;47.39
73085;BME280;61266;49.460;10.892;2022-07-22T00:17:51;98099.63;;;22.35;47.22
73085;BME280;61266;49.460;10.892;2022-07-22T00:20:19;98106.75;;;22.41;46.30
73085;BME280;61266;49.460;10.892;2022-07-22T00:22:46;98102.91;;;22.32;47.56
73085;BME280;61266;49.460;10.892;2022-07-22T00:25:14;98100.69;;;22.29;47.28
73085;BME280;61266;49.460;10.892;2022-07-22T00:27:42;98101.50;;;22.24;47.37
73085;BME280;61266;49.460;10.892;2022-07-22T00:30:10;98097.88;;;22.14;48.15
73085;BME280;61266;49.460;10.892;2022-07-22T00:32:38;98100.63;;;22.14;47.97
73085;BME280;61266;49.460;10.892;2022-07-22T00:35:07;98091.00;;;22.06;48.29
73085;BME280;61266;49.460;10.892;2022-07-22T00:37:35;98097.28;;;22.01;48.64
73085;BME280;61266;49.460;10.892;2022-07-22T00:40:04;98098.38;;;22.06;48.40
73085;BME280;61266;49.460;10.892;2022-07-22T00:42:32;98093.72;;;21.96;48.84
73085;BME280;61266;49.460;10.892;2022-07-22T00:45:01;98099.47;;;21.99;48.12
73085;BME280;61266;49.460;10.892;2022-07-22T00:47:30;98095.63;;;21.95;48.64
73085;BME280;61266;49.460;10.892;2022-07-22T00:49:58;98096.47;;;22.01;48.04
73085;BME280;61266;49.460;10.892;2022-07-22T00:52:27;98104.91;;;21.94;48.52
73085;BME280;61266;49.460;10.892;2022-07-22T00:54:55;98107.97;;;22.03;48.08
73085;BME280;61266;49.460;10.892;2022-07-22T00:57:23;98101.53;;;21.82;49.31
73085;BME280;61266;49.460;10.892;2022-07-22T00:59:54;98102.91;;;21.80;49.81
73085;BME280;61266;49.460;10.892;2022-07-22T01:02:21;98096.63;;;21.84;48.64
73085;BME280;61266;49.460;10.892;2022-07-22T01:04:49;98089.47;;;21.78;49.11
73085;BME280;61266;49.460;10.892;2022-07-22T01:07:17;98087.59;;;21.84;48.65
73085;BME280;61266;49.460;10.892;2022-07-22T01:09:46;98094.94;;;21.78;48.94
73085;BME280;61266;49.460;10.892;2022-07-22T01:12:15;98093.31;;;21.77;49.14
73085;BME280;61266;49.460;10.892;2022-07-22T01:14:43;98091.66;;;21.76;49.08
73085;BME280;61266;49.460;10.892;2022-07-22T01:17:11;98090.25;;;21.69;49.31
73085;BME280;61266;49.460;10.892;2022-07-22T01:19:39;98089.13;;;21.65;49.10
73085;BME280;61266;49.460;10.892;2022-07-22T01:22:08;98094.06;;;21.68;49.31
73085;BME280;61266;49.460;10.892;2022-07-22T01:24:35;98090.72;;;21.55;49.96
73085;BME280;61266;49.460;10.892;2022-07-22T01:27:03;98087.44;;;21.59;50.02
73085;BME280;61266;49.460;10.892;2022-07-22T01:29:31;98085.81;;;21.58;49.65
73085;BME280;61266;49.460;10.892;2022-07-22T01:31:59;98085.00;;;21.57;49.64
73085;BME280;61266;49.460;10.892;2022-07-22T01:34:26;98085.78;;;21.52;50.30
73085;BME280;61266;49.460;10.892;2022-07-22T01:36:54;98089.34;;;21.53;49.96
73085;BME280;61266;49.460;10.892;2022-07-22T01:39:23;98091.47;;;21.46;50.10
73085;BME280;61266;49.460;10.892;2022-07-22T01:41:50;98094.78;;;21.48;49.58
73085;BME280;61266;49.460;10.892;2022-07-22T01:44:18;98094.19;;;21.41;50.59
73085;BME280;61266;49.460;10.892;2022-07-22T01:46:46;98091.47;;;21.46;50.01
73085;BME280;61266;49.460;10.892;2022-07-22T01:49:13;98097.94;;;21.35;49.95
73085;BME280;61266;49.460;10.892;2022-07-22T01:51:43;98102.81;;;21.28;51.23
73085;BME280;61266;49.460;10.892;2022-07-22T01:54:10;98102.00;;;21.27;50.14
73085;BME280;61266;49.460;10.892;2022-07-22T01:56:55;98093.31;;;21.35;50.25
73085;BME280;61266;49.460;10.892;2022-07-22T01:59:23;98094.38;;;21.29;50.32
73085;BME280;61266;49.460;10.892;2022-07-22T02:01:51;98105.50;;;21.23;50.97
73085;BME280;61266;49.460;10.892;2022-07-22T02:04:18;98105.50;;;21.23;50.34
73085;BME280;61266;49.460;10.892;2022-07-22T02:06:52;98098.66;;;21.20;50.60
73085;BME280;61266;49.460;10.892;2022-07-22T02:09:19;98098.91;;;21.19;50.55
73085;BME280;61266;49.460;10.892;2022-07-22T02:11:47;98095.94;;;21.20;50.49
73085;BME280;61266;49.460;10.892;2022-07-22T02:14:16;98096.97;;;21.14;51.44
73085;BME280;61266;49.460;10.892;2022-07-22T02:16:44;98104.53;;;21.07;51.14
73085;BME280;61266;49.460;10.892;2022-07-22T02:19:12;98101.25;;;21.10;50.95
73085;BME280;61266;49.460;10.892;2022-07-22T02:21:40;98102.63;;;21.07;51.51
73085;BME280;61266;49.460;10.892;2022-07-22T02:24:08;98098.53;;;21.10;51.06
73085;BME280;61266;49.460;10.892;2022-07-22T02:26:35;98104.81;;;21.05;51.03
73085;BME280;61266;49.460;10.892;2022-07-22T02:29:03;98097.09;;;21.02;51.09
73085;BME280;61266;49.460;10.892;2022-07-22T02:31:32;98093.22;;;20.93;51.32
73085;BME280;61266;49.460;10.892;2022-07-22T02:34:00;98085.88;;;20.94;51.34
73085;BME280;61266;49.460;10.892;2022-07-22T02:36:28;98089.38;;;20.89;51.88
73085;BME280;61266;49.460;10.892;2022-07-22T02:38:56;98084.50;;;20.96;50.89
73085;BME280;61266;49.460;10.892;2022-07-22T02:41:24;98085.22;;;20.87;51.28
73085;BME280;61266;49.460;10.892;2022-07-22T02:43:52;98082.47;;;20.82;51.69
73085;BME280;61266;49.460;10.892;2022-07-22T02:46:21;98087.94;;;20.82;51.57
73085;BME280;61266;49.460;10.892;2022-07-22T02:48:50;98080.53;;;20.77;51.80
73085;BME280;61266;49.460;10.892;2022-07-22T02:51:18;98084.63;;;20.80;51.55
73085;BME280;61266;49.460;10.892;2022-07-22T02:53:46;98088.13;;;20.75;52.14
73085;BME280;61266;49.460;10.892;2022-07-22T02:56:14;98092.72;;;20.70;51.91
73085;BME280;61266;49.460;10.892;2022-07-22T02:58:42;98095.97;;;20.67;52.61
73085;BME280;61266;49.460;10.892;2022-07-22T03:01:10;98101.69;;;20.65;52.02
73085;BME280;61266;49.460;10.892;2022-07-22T03:03:38;98094.34;;;20.66;52.27
73085;BME280;61266;49.460;10.892;2022-07-22T03:06:07;98104.16;;;20.67;51.87
73085;BME280;61266;49.460;10.892;2022-07-22T03:08:35;98099.72;;;20.60;51.92
73085;BME280;61266;49.460;10.892;2022-07-22T03:11:03;98099.34;;;20.52;52.90
73085;BME280;61266;49.460;10.892;2022-07-22T03:13:31;98100.75;;;20.54;51.99
73085;BME280;61266;49.460;10.892;2022-07-22T03:15:59;98099.13;;;20.53;52.78
73085;BME280;61266;49.460;10.892;2022-07-22T03:18:26;98095.88;;;20.56;52.06
73085;BME280;61266;49.460;10.892;2022-07-22T03:20:54;98102.97;;;20.57;52.37
73085;BME280;61266;49.460;10.892;2022-07-22T03:23:23;98100.25;;;20.57;51.88
73085;BME280;61266;49.460;10.892;2022-07-22T03:25:51;98100.88;;;20.43;53.25
73085;BME280;61266;49.460;10.892;2022-07-22T03:28:19;98103.38;;;20.44;53.18
73085;BME280;61266;49.460;10.892;2022-07-22T03:30:46;98102.53;;;20.44;52.87
73085;BME280;61266;49.460;10.892;2022-07-22T03:33:14;98095.66;;;20.36;52.62
73085;BME280;61266;49.460;10.892;2022-07-22T03:35:42;98096.19;;;20.38;52.50
73085;BME280;61266;49.460;10.892;2022-07-22T03:38:09;98100.78;;;20.33;52.93
73085;BME280;61266;49.460;10.892;2022-07-22T03:40:39;98103.69;;;20.26;53.22
73085;BME280;61266;49.460;10.892;2022-07-22T03:43:06;98099.88;;;20.27;53.48
73085;BME280;61266;49.460;10.892;2022-07-22T03:45:34;98101.75;;;20.27;53.18
73085;BME280;61266;49.460;10.892;2022-07-22T03:48:03;98105.28;;;20.22;53.35
73085;BME280;61266;49.460;10.892;2022-07-22T03:50:31;98118.13;;;20.27;53.39
73085;BME280;61266;49.460;10.892;2022-07-22T03:52:58;98112.88;;;20.20;53.12
73085;BME280;61266;49.460;10.892;2022-07-22T03:55:29;98103.88;;;20.20;53.42
73085;BME280;61266;49.460;10.892;2022-07-22T03:57:59;98112.63;;;20.22;52.86
73085;BME280;61266;49.460;10.892;2022-07-22T04:00:26;98110.22;;;20.25;52.93
73085;BME280;61266;49.460;10.892;2022-07-22T04:02:54;98116.22;;;20.27;53.31
73085;BME280;61266;49.460;10.892;2022-07-22T04:05:22;98112.13;;;20.25;53.60
73085;BME280;61266;49.460;10.892;2022-07-22T04:07:50;98118.03;;;20.16;54.17
73085;BME280;61266;49.460;10.892;2022-07-22T04:10:17;98118.03;;;20.16;53.79
73085;BME280;61266;49.460;10.892;2022-07-22T04:12:45;98115.84;;;20.18;53.07
73085;BME280;61266;49.460;10.892;2022-07-22T04:15:14;98112.25;;;20.13;54.06
73085;BME280;61266;49.460;10.892;2022-07-22T04:17:42;98114.22;;;20.17;53.95
73085;BME280;61266;49.460;10.892;2022-07-22T04:20:10;98109.84;;;20.16;53.56
73085;BME280;61266;49.460;10.892;2022-07-22T04:22:38;98108.97;;;20.33;52.48
73085;BME280;61266;49.460;10.892;2022-07-22T04:25:06;98107.38;;;20.37;52.63
73085;BME280;61266;49.460;10.892;2022-07-22T04:27:35;98104.59;;;20.32;53.21
73085;BME280;61266;49.460;10.892;2022-07-22T04:30:04;98101.72;;;20.43;53.03
73085;BME280;61266;49.460;10.892;2022-07-22T04:32:33;98105.34;;;19.67;60.32
73085;BME280;61266;49.460;10.892;2022-07-22T04:35:01;98099.81;;;20.44;53.45
73085;BME280;61266;49.460;10.892;2022-07-22T04:37:28;98097.47;;;20.52;53.12
73085;BME280;61266;49.460;10.892;2022-07-22T04:39:56;98098.28;;;20.53;53.70
73085;BME280;61266;49.460;10.892;2022-07-22T04:42:24;98091.88;;;19.99;59.17
73085;BME280;61266;49.460;10.892;2022-07-22T04:44:52;98094.56;;;19.94;57.76
73085;BME280;61266;49.460;10.892;2022-07-22T04:47:19;98100.31;;;20.19;59.57
73085;BME280;61266;49.460;10.892;2022-07-22T04:49:48;98099.25;;;20.20;59.59
73085;BME280;61266;49.460;10.892;2022-07-22T04:52:16;98091.38;;;20.72;54.05
73085;BME280;61266;49.460;10.892;2022-07-22T04:54:46;98101.66;;;20.16;59.22
73085;BME280;61266;49.460;10.892;2022-07-22T04:57:15;98096.56;;;20.03;62.29
73085;BME280;61266;49.460;10.892;2022-07-22T04:59:42;98101.16;;;19.98;60.96
73085;BME280;61266;49.460;10.892;2022-07-22T05:02:10;98099.13;;;20.32;57.62
73085;BME280;61266;49.460;10.892;2022-07-22T05:04:38;98094.72;;;20.79;58.58
73085;BME280;61266;49.460;10.892;2022-07-22T05:07:07;98094.75;;;20.09;62.31
73085;BME280;61266;49.460;10.892;2022-07-22T05:09:35;98095.00;;;21.09;54.94
73085;BME280;61266;49.460;10.892;2022-07-22T05:12:03;98097.47;;;21.11;58.86
73085;BME280;61266;49.460;10.892;2022-07-22T05:14:31;98099.13;;;21.44;55.69
73085;BME280;61266;49.460;10.892;2022-07-22T05:17:04;98102.53;;;20.97;57.31
73085;BME280;61266;49.460;10.892;2022-07-22T05:19:41;98099.03;;;21.02;58.88
73085;BME280;61266;49.460;10.892;2022-07-22T05:22:10;98097.16;;;21.07;60.63
73085;BME280;61266;49.460;10.892;2022-07-22T05:24:38;98088.38;;;21.32;56.78
73085;BME280;61266;49.460;10.892;2022-07-22T05:27:05;98092.44;;;20.98;60.95
73085;BME280;61266;49.460;10.892;2022-07-22T05:29:43;98097.38;;;20.74;62.03
73085;BME280;61266;49.460;10.892;2022-07-22T05:32:13;98096.72;;;20.89;60.90
73085;BME280;61266;49.460;10.892;2022-07-22T05:34:40;98103.28;;;20.88;60.99
73085;BME280;61266;49.460;10.892;2022-07-22T05:37:09;98092.94;;;20.90;60.92
73085;BME280;61266;49.460;10.892;2022-07-22T05:39:37;98091.81;;;20.91;60.98
73085;BME280;61266;49.460;10.892;2022-07-22T05:42:12;98095.31;;;20.86;61.51
73085;BME280;61266;49.460;10.892;2022-07-22T05:44:40;98090.41;;;21.15;60.24
73085;BME280;61266;49.460;10.892;2022-07-22T05:47:09;98097.16;;;21.07;60.27
73085;BME280;61266;49.460;10.892;2022-07-22T05:49:37;98096.16;;;21.14;59.69
73085;BME280;61266;49.460;10.892;2022-07-22T05:52:11;98097.59;;;21.21;60.65
73085;BME280;61266;49.460;10.892;2022-07-22T05:54:41;98091.66;;;21.34;60.69
73085;BME280;61266;49.460;10.892;2022-07-22T05:57:35;98100.19;;;21.11;61.44
73085;BME280;61266;49.460;10.892;2022-07-22T06:00:04;98098.06;;;21.13;62.11
73085;BME280;61266;49.460;10.892;2022-07-22T06:02:32;98098.38;;;21.17;60.16
73085;BME280;61266;49.460;10.892;2022-07-22T06:05:14;98101.41;;;21.57;58.52
73085;BME280;61266;49.460;10.892;2022-07-22T06:08:06;98096.44;;;21.49;59.04
73085;BME280;61266;49.460;10.892;2022-07-22T06:10:42;98102.03;;;21.32;59.44
73085;BME280;61266;49.460;10.892;2022-07-22T06:13:28;98109.03;;;21.55;60.34
73085;BME280;61266;49.460;10.892;2022-07-22T06:16:10;98114.38;;;21.40;59.63
73085;BME280;61266;49.460;10.892;2022-07-22T06:18:40;98109.25;;;20.85;61.50
73085;BME280;61266;49.460;10.892;2022-07-22T06:21:07;98113.34;;;21.14;60.88
73085;BME280;61266;49.460;10.892;2022-07-22T06:23:36;98114.06;;;21.04;60.97
73085;BME280;61266;49.460;10.892;2022-07-22T06:26:07;98113.16;;;21.58;59.82
73085;BME280;61266;49.460;10.892;2022-07-22T06:28:35;98106.63;;;22.11;57.88
73085;BME280;61266;49.460;10.892;2022-07-22T06:31:02;98108.06;;;21.76;59.27
73085;BME280;61266;49.460;10.892;2022-07-22T06:33:30;98105.75;;;21.53;60.90
73085;BME280;61266;49.460;10.892;2022-07-22T06:35:59;98113.22;;;21.68;59.23
73085;BME280;61266;49.460;10.892;2022-07-22T06:38:27;98111.38;;;21.83;58.81
73085;BME280;61266;49.460;10.892;2022-07-22T06:41:01;98106.13;;;21.72;59.12
73085;BME280;61266;49.460;10.892;2022-07-22T06:43:29;98110.47;;;21.68;59.16
73085;BME280;61266;49.460;10.892;2022-07-22T06:45:57;98112.59;;;21.55;58.58
73085;BME280;61266;49.460;10.892;2022-07-22T06:48:25;98109.22;;;21.90;58.23
73085;BME280;61266;49.460;10.892;2022-07-22T06:50:52;98117.72;;;21.89;57.00
73085;BME280;61266;49.460;10.892;2022-07-22T06:53:20;98119.81;;;21.35;58.94
73085;BME280;61266;49.460;10.892;2022-07-22T06:55:48;98113.59;;;21.44;58.87
73085;BME280;61266;49.460;10.892;2022-07-22T06:58:18;98109.66;;;22.09;57.31
73085;BME280;61266;49.460;10.892;2022-07-22T07:00:46;98112.75;;;21.86;58.39
73085;BME280;61266;49.460;10.892;2022-07-22T07:03:16;98112.63;;;22.75;56.18
73085;BME280;61266;49.460;10.892;2022-07-22T07:06:01;98114.44;;;22.54;57.15
73085;BME280;61266;49.460;10.892;2022-07-22T07:08:31;98100.47;;;22.40;56.73
73085;BME280;61266;49.460;10.892;2022-07-22T07:11:00;98114.34;;;22.24;57.02
73085;BME280;61266;49.460;10.892;2022-07-22T07:13:30;98106.59;;;22.73;56.50
73085;BME280;61266;49.460;10.892;2022-07-22T07:15:58;98106.91;;;23.07;55.78
73085;BME280;61266;49.460;10.892;2022-07-22T07:18:27;98107.44;;;22.99;55.41
73085;BME280;61266;49.460;10.892;2022-07-22T07:20:58;98099.25;;;23.04;56.90
73085;BME280;61266;49.460;10.892;2022-07-22T07:23:26;98097.88;;;22.96;55.98
73085;BME280;61266;49.460;10.892;2022-07-22T07:25:54;98095.41;;;23.05;54.90
73085;BME280;61266;49.460;10.892;2022-07-22T07:28:21;98092.38;;;23.26;54.28
73085;BME280;61266;49.460;10.892;2022-07-22T07:30:50;98084.97;;;23.62;54.99
73085;BME280;61266;49.460;10.892;2022-07-22T07:33:18;98080.03;;;23.49;53.95
73085;BME280;61266;49.460;10.892;2022-07-22T07:35:46;98074.84;;;23.48;53.82
73085;BME280;61266;49.460;10.892;2022-07-22T07:38:38;98073.19;;;22.81;55.74
73085;BME280;61266;49.460;10.892;2022-07-22T07:41:30;98083.63;;;23.24;55.50
73085;BME280;61266;49.460;10.892;2022-07-22T07:44:25;98071.25;;;23.67;54.98
73085;BME280;61266;49.460;10.892;2022-07-22T07:47:18;98067.25;;;24.24;52.09
73085;BME280;61266;49.460;10.892;2022-07-22T07:49:48;98064.63;;;23.89;52.73
73085;BME280;61266;49.460;10.892;2022-07-22T07:52:16;98065.53;;;23.49;53.27
73085;BME280;61266;49.460;10.892;2022-07-22T07:54:45;98072.13;;;23.43;53.37
73085;BME280;61266;49.460;10.892;2022-07-22T07:57:35;98074.56;;;23.49;53.46
73085;BME280;61266;49.460;10.892;2022-07-22T08:00:06;98067.88;;;23.96;51.64
73085;BME280;61266;49.460;10.892;2022-07-22T08:02:39;98061.19;;;24.22;52.35
73085;BME280;61266;49.460;10.892;2022-07-22T08:05:08;98065.31;;;24.24;51.41
73085;BME280;61266;49.460;10.892;2022-07-22T08:07:37;98066.81;;;23.81;52.08
73085;BME280;61266;49.460;10.892;2022-07-22T08:10:06;98068.75;;;24.45;50.68
73085;BME280;61266;49.460;10.892;2022-07-22T08:12:54;98060.59;;;24.30;50.15
73085;BME280;61266;49.460;10.892;2022-07-22T08:15:24;98061.53;;;24.59;50.93
73085;BME280;61266;49.460;10.892;2022-07-22T08:17:54;98058.69;;;24.30;49.94
73085;BME280;61266;49.460;10.892;2022-07-22T08:20:23;98057.19;;;24.53;50.14
73085;BME280;61266;49.460;10.892;2022-07-22T08:22:52;98058.81;;;24.54;49.70
73085;BME280;61266;49.460;10.892;2022-07-22T08:25:20;98050.53;;;24.15;50.54
73085;BME280;61266;49.460;10.892;2022-07-22T08:27:51;98054.19;;;23.85;50.99
73085;BME280;61266;49.460;10.892;2022-07-22T08:30:19;98049.66;;;24.25;49.58
73085;BME280;61266;49.460;10.892;2022-07-22T08:32:55;98058.94;;;24.34;49.97
73085;BME280;61266;49.460;10.892;2022-07-22T08:35:23;98052.59;;;24.44;50.01
73085;BME280;61266;49.460;10.892;2022-07-22T08:37:53;98057.66;;;24.16;49.70
73085;BME280;61266;49.460;10.892;2022-07-22T08:40:21;98050.13;;;24.37;49.56
73085;BME280;61266;49.460;10.892;2022-07-22T08:42:50;98042.59;;;24.58;49.64
73085;BME280;61266;49.460;10.892;2022-07-22T08:45:18;98046.50;;;24.91;49.73
73085;BME280;61266;49.460;10.892;2022-07-22T08:47:49;98042.34;;;25.56;48.11
73085;BME280;61266;49.460;10.892;2022-07-22T08:50:21;98037.06;;;25.36;48.23
73085;BME280;61266;49.460;10.892;2022-07-22T08:52:49;98037.81;;;25.12;47.37
73085;BME280;61266;49.460;10.892;2022-07-22T08:55:17;98034.81;;;25.38;46.94
73085;BME280;61266;49.460;10.892;2022-07-22T08:57:45;98029.91;;;25.87;46.05
73085;BME280;61266;49.460;10.892;2022-07-22T09:00:15;98029.03;;;25.68;46.34
73085;BME280;61266;49.460;10.892;2022-07-22T09:02:45;98023.22;;;25.41;47.03
73085;BME280;61266;49.460;10.892;2022-07-22T09:05:17;98025.81;;;25.61;47.20
73085;BME280;61266;49.460;10.892;2022-07-22T09:08:06;98018.31;;;25.38;47.53
73085;BME280;61266;49.460;10.892;2022-07-22T09:10:34;98012.34;;;25.83;45.44
73085;BME280;61266;49.460;10.892;2022-07-22T09:13:06;98016.34;;;25.43;46.71
73085;BME280;61266;49.460;10.892;2022-07-22T09:15:36;98022.13;;;25.70;46.98
73085;BME280;61266;49.460;10.892;2022-07-22T09:18:06;98017.09;;;25.54;45.73
73085;BME280;61266;49.460;10.892;2022-07-22T09:20:35;98022.06;;;25.76;46.17
73085;BME280;61266;49.460;10.892;2022-07-22T09:23:10;98022.41;;;25.40;47.08
73085;BME280;61266;49.460;10.892;2022-07-22T09:25:40;98018.56;;;25.41;46.85
73085;BME280;61266;49.460;10.892;2022-07-22T09:28:14;98016.44;;;25.33;46.47
73085;BME280;61266;49.460;10.892;2022-07-22T09:30:47;98012.47;;;25.44;46.28
73085;BME280;61266;49.460;10.892;2022-07-22T09:33:18;98011.94;;;25.42;45.58
73085;BME280;61266;49.460;10.892;2022-07-22T09:35:48;98015.16;;;25.49;45.48
73085;BME280;61266;49.460;10.892;2022-07-22T09:38:27;98011.06;;;26.18;45.03
73085;BME280;61266;49.460;10.892;2022-07-22T09:40:56;98019.09;;;26.20;43.08
73085;BME280;61266;49.460;10.892;2022-07-22T09:43:24;98003.50;;;26.85;42.99
73085;BME280;61266;49.460;10.892;2022-07-22T09:45:56;98008.59;;;26.16;42.55
73085;BME280;61266;49.460;10.892;2022-07-22T09:48:25;98008.88;;;26.39;43.84
73085;BME280;61266;49.460;10.892;2022-07-22T09:50:54;97999.69;;;26.81;42.69
73085;BME280;61266;49.460;10.892;2022-07-22T09:53:26;98002.91;;;26.32;42.29
73085;BME280;61266;49.460;10.892;2022-07-22T09:55:55;98003.13;;;25.93;43.62
73085;BME280;61266;49.460;10.892;2022-07-22T09:58:24;98002.34;;;26.35;43.08
73085;BME280;61266;49.460;10.892;2022-07-22T10:00:54;98003.22;;;26.49;41.82
73085;BME280;61266;49.460;10.892;2022-07-22T10:03:26;98001.88;;;26.04;43.71
73085;BME280;61266;49.460;10.892;2022-07-22T10:05:56;98005.41;;;26.09;43.86
73085;BME280;61266;49.460;10.892;2022-07-22T10:08:30;97998.97;;;26.56;42.68
73085;BME280;61266;49.460;10.892;2022-07-22T10:10:59;97994.50;;;26.79;42.21
73085;BME280;61266;49.460;10.892;2022-07-22T10:13:27;97995.59;;;26.97;41.79
73085;BME280;61266;49.460;10.892;2022-07-22T10:15:56;97986.41;;;27.01;41.86
73085;BME280;61266;49.460;10.892;2022-07-22T10:18:24;97990.63;;;26.99;41.17
73085;BME280;61266;49.460;10.892;2022-07-22T10:21:05;97978.69;;;27.17;41.66
73085;BME280;61266;49.460;10.892;2022-07-22T10:23:35;97973.53;;;26.97;40.58
73085;BME280;61266;49.460;10.892;2022-07-22T10:26:03;97974.50;;;27.06;40.28
73085;BME280;61266;49.460;10.892;2022-07-22T10:28:33;97970.78;;;26.97;40.35
73085;BME280;61266;49.460;10.892;2022-07-22T10:31:21;97967.38;;;27.32;41.03
73085;BME280;61266;49.460;10.892;2022-07-22T10:33:51;97962.22;;;27.72;40.83
73085;BME280;61266;49.460;10.892;2022-07-22T10:36:33;97975.13;;;27.63;39.85
73085;BME280;61266;49.460;10.892;2022-07-22T10:39:05;97964.47;;;27.70;40.87
73085;BME280;61266;49.460;10.892;2022-07-22T10:41:34;97957.91;;;27.79;39.73
73085;BME280;61266;49.460;10.892;2022-07-22T10:44:03;97960.75;;;27.88;39.61
73085;BME280;61266;49.460;10.892;2022-07-22T10:46:49;97955.69;;;27.54;40.51
73085;BME280;61266;49.460;10.892;2022-07-22T10:49:19;97948.09;;;28.14;40.11
73085;BME280;61266;49.460;10.892;2022-07-22T10:52:09;97952.56;;;27.96;40.11
73085;BME280;61266;49.460;10.892;2022-07-22T10:55:20;97949.28;;;28.08;39.71
73085;BME280;61266;49.460;10.892;2022-07-22T10:57:47;97952.00;;;28.35;38.86
73085;BME280;61266;49.460;10.892;2022-07-22T11:00:15;97943.28;;;28.42;39.59
73085;BME280;61266;49.460;10.892;2022-07-22T11:02:43;97935.00;;;28.42;39.44
73085;BME280;61266;49.460;10.892;2022-07-22T11:05:11;97943.13;;;28.25;38.01
73085;BME280;61266;49.460;10.892;2022-07-22T11:07:42;97936.72;;;28.16;37.76
73085;BME280;61266;49.460;10.892;2022-07-22T11:10:12;97944.50;;;28.00;39.34
73085;BME280;61266;49.460;10.892;2022-07-22T11:12:47;97924.28;;;27.77;39.60
73085;BME280;61266;49.460;10.892;2022-07-22T11:15:17;97921.53;;;28.27;38.99
73085;BME280;61266;49.460;10.892;2022-07-22T11:17:44;97917.69;;;28.50;38.01
73085;BME280;61266;49.460;10.892;2022-07-22T11:20:12;97916.38;;;28.70;37.69
73085;BME280;61266;49.460;10.892;2022-07-22T11:22:40;97912.34;;;28.98;36.58
73085;BME280;61266;49.460;10.892;2022-07-22T11:25:10;97923.75;;;28.02;36.25
73085;BME280;61266;49.460;10.892;2022-07-22T11:27:39;97919.59;;;28.27;36.59
73085;BME280;61266;49.460;10.892;2022-07-22T11:30:09;97913.75;;;28.29;37.64
73085;BME280;61266;49.460;10.892;2022-07-22T11:32:42;97911.25;;;28.63;35.64
73085;BME280;61266;49.460;10.892;2022-07-22T11:35:11;97909.91;;;28.74;36.39
73085;BME280;61266;49.460;10.892;2022-07-22T11:37:39;97903.34;;;28.92;36.53
73085;BME280;61266;49.460;10.892;2022-07-22T11:40:11;97897.94;;;28.65;37.07
73085;BME280;61266;49.460;10.892;2022-07-22T11:42:39;97897.16;;;28.96;35.44
73085;BME280;61266;49.460;10.892;2022-07-22T11:45:10;97894.09;;;28.97;37.20
73085;BME280;61266;49.460;10.892;2022-07-22T11:47:49;97894.56;;;28.46;35.76
73085;BME280;61266;49.460;10.892;2022-07-22T11:50:17;97893.22;;;28.43;35.18
73085;BME280;61266;49.460;10.892;2022-07-22T11:52:56;97888.00;;;28.86;35.14
73085;BME280;61266;49.460;10.892;2022-07-22T11:55:23;97891.09;;;28.85;35.38
73085;BME280;61266;49.460;10.892;2022-07-22T11:57:51;97886.38;;;28.63;36.70
73085;BME280;61266;49.460;10.892;2022-07-22T12:00:21;97886.53;;;28.58;36.58
73085;BME280;61266;49.460;10.892;2022-07-22T12:02:49;97881.66;;;28.64;35.46
73085;BME280;61266;49.460;10.892;2022-07-22T12:05:24;97875.59;;;28.53;36.64
73085;BME280;61266;49.460;10.892;2022-07-22T12:07:58;97868.28;;;28.79;36.58
73085;BME280;61266;49.460;10.892;2022-07-22T12:10:28;97870.03;;;29.28;35.60
73085;BME280;61266;49.460;10.892;2022-07-22T12:12:56;97870.41;;;29.44;35.83
73085;BME280;61266;49.460;10.892;2022-07-22T12:15:26;97864.13;;;28.90;35.09
73085;BME280;61266;49.460;10.892;2022-07-22T12:18:17;97860.00;;;29.10;34.16
73085;BME280;61266;49.460;10.892;2022-07-22T12:20:46;97851.09;;;28.91;34.87
73085;BME280;61266;49.460;10.892;2022-07-22T12:23:22;97841.25;;;28.45;35.93
73085;BME280;61266;49.460;10.892;2022-07-22T12:25:51;97837.88;;;28.79;34.56
73085;BME280;61266;49.460;10.892;2022-07-22T12:28:19;97838.16;;;29.48;35.80
73085;BME280;61266;49.460;10.892;2022-07-22T12:30:49;97840.16;;;29.65;34.15
73085;BME280;61266;49.460;10.892;2022-07-22T12:33:20;97835.88;;;29.50;34.93
73085;BME280;61266;49.460;10.892;2022-07-22T12:35:59;97838.22;;;29.74;32.64
73085;BME280;61266;49.460;10.892;2022-07-22T12:38:29;97836.84;;;29.37;33.31
73085;BME280;61266;49.460;10.892;2022-07-22T12:41:23;97823.31;;;29.35;32.39
73085;BME280;61266;49.460;10.892;2022-07-22T12:43:54;97824.38;;;29.74;32.62
73085;BME280;61266;49.460;10.892;2022-07-22T12:46:25;97820.34;;;29.89;31.96
73085;BME280;61266;49.460;10.892;2022-07-22T12:48:58;97821.72;;;29.52;31.65
73085;BME280;61266;49.460;10.892;2022-07-22T12:51:30;97818.19;;;29.77;31.88
73085;BME280;61266;49.460;10.892;2022-07-22T12:54:46;97810.16;;;29.41;33.48
73085;BME280;61266;49.460;10.892;2022-07-22T12:57:44;97811.22;;;29.88;32.00
73085;BME280;61266;49.460;10.892;2022-07-22T13:00:50;97812.50;;;29.73;31.40
73085;BME280;61266;49.460;10.892;2022-07-22T13:03:28;97811.06;;;30.02;32.06
73085;BME280;61266;49.460;10.892;2022-07-22T13:06:31;97810.41;;;30.13;32.21
73085;BME280;61266;49.460;10.892;2022-07-22T13:09:56;97805.84;;;29.92;31.71